Zero, Nebraska
Current Conditions -  °F | °C
As of 1:02 AM on Thursday 23 Oct 2014 (Local Time) from KHSI Reporting Station
Moderate Fog Moderate Fog  
Wind Chill: 55°   Ceiling: 300
Heat Index: 55°   Visibility: 0.25mi
Dew Point: 53°   Wind: 3mph
Humidity: 93%   Direction: 300°WNW
Pressure: 30.05"   Gusts: NA
Location:  40.4373°N, 98.4396°W
Report Text: KHSI 230602Z AUTO 30003KT 1/4SM FG BKN003 OVC015 13/12 A3005 RMK AO2 T01280117
Loading
Personal Weather Stations






























Interactive Weather Map
Tropical Storm Tracking
New forecast layout! Learn more

10-Day Weather Forecast

Advertisements
Track Severe Weather on mobile